sensor_id;sensor_type;location;lat;lon;timestamp;temperature;humidity
53711;DHT22;39605;52.704;6.752;2023-03-01T00:00:42;-0.50;99.90
53711;DHT22;39605;52.704;6.752;2023-03-01T00:03:12;-0.50;99.90
53711;DHT22;39605;52.704;6.752;2023-03-01T00:05:46;-0.50;98.70
53711;DHT22;39605;52.704;6.752;2023-03-01T00:08:12;-0.60;96.70
53711;DHT22;39605;52.704;6.752;2023-03-01T00:10:38;-0.60;99.90
53711;DHT22;39605;52.704;6.752;2023-03-01T00:13:04;-0.50;99.90
53711;DHT22;39605;52.704;6.752;2023-03-01T00:15:31;-0.50;96.40
53711;DHT22;39605;52.704;6.752;2023-03-01T00:17:57;-0.50;98.40
53711;DHT22;39605;52.704;6.752;2023-03-01T00:20:23;-0.50;98.40
53711;DHT22;39605;52.704;6.752;2023-03-01T00:22:49;-0.60;95.30
53711;DHT22;39605;52.704;6.752;2023-03-01T00:25:15;-0.70;98.70
53711;DHT22;39605;52.704;6.752;2023-03-01T00:27:40;-0.60;99.90
53711;DHT22;39605;52.704;6.752;2023-03-01T00:30:07;-0.70;99.30
53711;DHT22;39605;52.704;6.752;2023-03-01T00:32:32;-0.60;99.90
53711;DHT22;39605;52.704;6.752;2023-03-01T00:34:58;-0.60;96.70
53711;DHT22;39605;52.704;6.752;2023-03-01T00:37:24;-0.70;99.90
53711;DHT22;39605;52.704;6.752;2023-03-01T00:39:50;-0.70;99.90
53711;DHT22;39605;52.704;6.752;2023-03-01T00:42:16;-0.80;98.30
53711;DHT22;39605;52.704;6.752;2023-03-01T00:44:42;-0.80;99.90
53711;DHT22;39605;52.704;6.752;2023-03-01T00:47:08;-0.80;98.40
53711;DHT22;39605;52.704;6.752;2023-03-01T00:49:34;-0.80;99.70
53711;DHT22;39605;52.704;6.752;2023-03-01T00:51:59;-0.80;99.90
53711;DHT22;39605;52.704;6.752;2023-03-01T00:54:25;-0.80;97.00
53711;DHT22;39605;52.704;6.752;2023-03-01T00:56:51;-0.80;99.90
53711;DHT22;39605;52.704;6.752;2023-03-01T00:59:16;-0.80;99.90
53711;DHT22;39605;52.704;6.752;2023-03-01T01:01:42;-0.80;99.90
53711;DHT22;39605;52.704;6.752;2023-03-01T01:04:11;-0.70;99.90
53711;DHT22;39605;52.704;6.752;2023-03-01T01:06:45;-0.70;99.90
53711;DHT22;39605;52.704;6.752;2023-03-01T01:09:14;-0.70;96.60
53711;DHT22;39605;52.704;6.752;2023-03-01T01:11:49;-0.70;99.40
53711;DHT22;39605;52.704;6.752;2023-03-01T01:14:16;-0.80;99.90
53711;DHT22;39605;52.704;6.752;2023-03-01T01:16:42;-0.80;99.90
53711;DHT22;39605;52.704;6.752;2023-03-01T01:19:10;-0.80;99.90
53711;DHT22;39605;52.704;6.752;2023-03-01T01:21:36;-0.90;97.80
53711;DHT22;39605;52.704;6.752;2023-03-01T01:24:03;-0.90;94.10
53711;DHT22;39605;52.704;6.752;2023-03-01T01:26:31;-0.90;99.90
53711;DHT22;39605;52.704;6.752;2023-03-01T01:28:57;-0.90;99.90
53711;DHT22;39605;52.704;6.752;2023-03-01T01:31:24;-0.90;99.90
53711;DHT22;39605;52.704;6.752;2023-03-01T01:33:50;-0.90;98.20
53711;DHT22;39605;52.704;6.752;2023-03-01T01:36:16;-0.90;96.10
53711;DHT22;39605;52.704;6.752;2023-03-01T01:38:42;-0.90;95.70
53711;DHT22;39605;52.704;6.752;2023-03-01T01:41:09;-0.90;93.30
53711;DHT22;39605;52.704;6.752;2023-03-01T01:43:42;-1.00;95.40
53711;DHT22;39605;52.704;6.752;2023-03-01T01:46:32;-1.00;98.40
53711;DHT22;39605;52.704;6.752;2023-03-01T01:49:04;-1.00;99.90
53711;DHT22;39605;52.704;6.752;2023-03-01T01:51:35;-1.00;99.00
53711;DHT22;39605;52.704;6.752;2023-03-01T01:54:16;-1.10;99.10
53711;DHT22;39605;52.704;6.752;2023-03-01T01:56:48;-1.10;99.90
53711;DHT22;39605;52.704;6.752;2023-03-01T01:59:16;-1.20;99.90
53711;DHT22;39605;52.704;6.752;2023-03-01T02:01:42;-1.20;99.90
53711;DHT22;39605;52.704;6.752;2023-03-01T02:04:08;-1.20;99.90
53711;DHT22;39605;52.704;6.752;2023-03-01T02:06:37;-1.20;99.90
53711;DHT22;39605;52.704;6.752;2023-03-01T02:09:08;-1.20;99.10
53711;DHT22;39605;52.704;6.752;2023-03-01T02:11:36;-1.20;97.00
53711;DHT22;39605;52.704;6.752;2023-03-01T02:14:03;-1.30;99.90
53711;DHT22;39605;52.704;6.752;2023-03-01T02:16:29;-1.30;98.40
53711;DHT22;39605;52.704;6.752;2023-03-01T02:18:57;-1.30;92.00
53711;DHT22;39605;52.704;6.752;2023-03-01T02:24:14;-1.40;91.20
53711;DHT22;39605;52.704;6.752;2023-03-01T02:26:55;-1.40;92.20
53711;DHT22;39605;52.704;6.752;2023-03-01T02:29:22;-1.50;92.80
53711;DHT22;39605;52.704;6.752;2023-03-01T02:31:49;-1.50;93.00
53711;DHT22;39605;52.704;6.752;2023-03-01T02:34:19;-1.60;92.60
53711;DHT22;39605;52.704;6.752;2023-03-01T02:36:57;-1.60;92.50
53711;DHT22;39605;52.704;6.752;2023-03-01T02:39:32;-1.60;91.80
53711;DHT22;39605;52.704;6.752;2023-03-01T02:41:59;-1.70;98.20
53711;DHT22;39605;52.704;6.752;2023-03-01T02:44:27;-1.70;95.60
53711;DHT22;39605;52.704;6.752;2023-03-01T02:46:55;-1.70;94.70
53711;DHT22;39605;52.704;6.752;2023-03-01T02:49:29;-1.70;96.50
53711;DHT22;39605;52.704;6.752;2023-03-01T02:54:36;-1.70;96.20
53711;DHT22;39605;52.704;6.752;2023-03-01T02:57:04;-1.70;95.60
53711;DHT22;39605;52.704;6.752;2023-03-01T02:59:32;-1.80;96.10
53711;DHT22;39605;52.704;6.752;2023-03-01T03:02:20;-1.80;98.60
53711;DHT22;39605;52.704;6.752;2023-03-01T03:05:10;-1.80;97.40
53711;DHT22;39605;52.704;6.752;2023-03-01T03:07:38;-1.80;96.70
53711;DHT22;39605;52.704;6.752;2023-03-01T03:10:06;-1.80;99.20
53711;DHT22;39605;52.704;6.752;2023-03-01T03:12:33;-1.80;99.70
53711;DHT22;39605;52.704;6.752;2023-03-01T03:14:58;-1.80;99.90
53711;DHT22;39605;52.704;6.752;2023-03-01T03:17:24;-1.90;99.90
53711;DHT22;39605;52.704;6.752;2023-03-01T03:19:50;-1.90;99.90
53711;DHT22;39605;52.704;6.752;2023-03-01T03:22:15;-1.90;99.90
53711;DHT22;39605;52.704;6.752;2023-03-01T03:24:41;-1.90;99.90
53711;DHT22;39605;52.704;6.752;2023-03-01T03:27:07;-1.90;99.90
53711;DHT22;39605;52.704;6.752;2023-03-01T03:29:33;-1.90;99.70
53711;DHT22;39605;52.704;6.752;2023-03-01T03:31:59;-1.90;99.90
53711;DHT22;39605;52.704;6.752;2023-03-01T03:34:25;-1.90;99.90
53711;DHT22;39605;52.704;6.752;2023-03-01T03:36:55;-1.90;99.90
53711;DHT22;39605;52.704;6.752;2023-03-01T03:39:26;-1.90;98.40
53711;DHT22;39605;52.704;6.752;2023-03-01T03:42:00;-2.00;95.20
53711;DHT22;39605;52.704;6.752;2023-03-01T03:44:26;-2.00;94.00
53711;DHT22;39605;52.704;6.752;2023-03-01T03:46:52;-2.10;92.90
53711;DHT22;39605;52.704;6.752;2023-03-01T03:49:17;-2.10;92.90
53711;DHT22;39605;52.704;6.752;2023-03-01T03:51:45;-2.20;92.90
53711;DHT22;39605;52.704;6.752;2023-03-01T03:54:11;-2.20;95.70
53711;DHT22;39605;52.704;6.752;2023-03-01T03:56:37;-2.20;94.00
53711;DHT22;39605;52.704;6.752;2023-03-01T03:59:03;-2.30;91.90
53711;DHT22;39605;52.704;6.752;2023-03-01T04:01:28;-2.30;94.10
53711;DHT22;39605;52.704;6.752;2023-03-01T04:03:54;-2.40;96.20
53711;DHT22;39605;52.704;6.752;2023-03-01T04:06:20;-2.40;98.20
53711;DHT22;39605;52.704;6.752;2023-03-01T04:08:46;-2.50;99.90
53711;DHT22;39605;52.704;6.752;2023-03-01T04:11:11;-2.50;97.50
53711;DHT22;39605;52.704;6.752;2023-03-01T04:13:54;-2.50;98.80
53711;DHT22;39605;52.704;6.752;2023-03-01T04:16:20;-2.50;98.40
53711;DHT22;39605;52.704;6.752;2023-03-01T04:18:46;-2.50;98.20
53711;DHT22;39605;52.704;6.752;2023-03-01T04:21:12;-2.50;98.70
53711;DHT22;39605;52.704;6.752;2023-03-01T04:23:39;-2.40;99.90
53711;DHT22;39605;52.704;6.752;2023-03-01T04:26:07;-2.40;99.90
53711;DHT22;39605;52.704;6.752;2023-03-01T04:28:39;-2.30;99.50
53711;DHT22;39605;52.704;6.752;2023-03-01T04:31:11;-2.30;99.90
53711;DHT22;39605;52.704;6.752;2023-03-01T04:33:51;-2.20;99.90
53711;DHT22;39605;52.704;6.752;2023-03-01T04:36:19;-2.20;99.90
53711;DHT22;39605;52.704;6.752;2023-03-01T04:38:46;-2.20;99.90
53711;DHT22;39605;52.704;6.752;2023-03-01T04:41:14;-2.20;99.90
53711;DHT22;39605;52.704;6.752;2023-03-01T04:43:40;-2.30;99.90
53711;DHT22;39605;52.704;6.752;2023-03-01T04:46:08;-2.30;99.90
53711;DHT22;39605;52.704;6.752;2023-03-01T04:48:38;-2.20;99.90
53711;DHT22;39605;52.704;6.752;2023-03-01T04:51:05;-2.40;94.00
53711;DHT22;39605;52.704;6.752;2023-03-01T04:53:32;-2.40;93.20
53711;DHT22;39605;52.704;6.752;2023-03-01T04:55:58;-2.40;93.10
53711;DHT22;39605;52.704;6.752;2023-03-01T04:58:26;-2.40;92.60
53711;DHT22;39605;52.704;6.752;2023-03-01T05:00:53;-2.50;91.60
53711;DHT22;39605;52.704;6.752;2023-03-01T05:03:19;-2.50;90.90
53711;DHT22;39605;52.704;6.752;2023-03-01T05:05:48;-2.50;91.40
53711;DHT22;39605;52.704;6.752;2023-03-01T05:08:14;-2.40;91.50
53711;DHT22;39605;52.704;6.752;2023-03-01T05:10:45;-2.50;91.40
53711;DHT22;39605;52.704;6.752;2023-03-01T05:13:12;-2.50;91.50
53711;DHT22;39605;52.704;6.752;2023-03-01T05:15:57;-2.50;91.70
53711;DHT22;39605;52.704;6.752;2023-03-01T05:18:24;-2.60;91.00
53711;DHT22;39605;52.704;6.752;2023-03-01T05:21:03;-2.70;91.10
53711;DHT22;39605;52.704;6.752;2023-03-01T05:23:30;-2.70;91.00
53711;DHT22;39605;52.704;6.752;2023-03-01T05:26:00;-2.70;91.20
53711;DHT22;39605;52.704;6.752;2023-03-01T05:28:26;-2.70;91.60
53711;DHT22;39605;52.704;6.752;2023-03-01T05:30:54;-2.70;91.50
53711;DHT22;39605;52.704;6.752;2023-03-01T05:33:19;-2.70;90.70
53711;DHT22;39605;52.704;6.752;2023-03-01T05:35:48;-2.70;91.20
53711;DHT22;39605;52.704;6.752;2023-03-01T05:38:15;-2.70;91.20
53711;DHT22;39605;52.704;6.752;2023-03-01T05:40:43;-2.70;91.60
53711;DHT22;39605;52.704;6.752;2023-03-01T05:43:09;-2.70;91.50
53711;DHT22;39605;52.704;6.752;2023-03-01T05:45:36;-2.70;91.40
53711;DHT22;39605;52.704;6.752;2023-03-01T05:48:02;-2.60;91.50
53711;DHT22;39605;52.704;6.752;2023-03-01T05:50:29;-2.60;91.60
53711;DHT22;39605;52.704;6.752;2023-03-01T05:52:59;-2.60;91.50
53711;DHT22;39605;52.704;6.752;2023-03-01T05:55:26;-2.60;91.40
53711;DHT22;39605;52.704;6.752;2023-03-01T05:57:52;-2.60;91.50
53711;DHT22;39605;52.704;6.752;2023-03-01T06:00:20;-2.70;90.10
53711;DHT22;39605;52.704;6.752;2023-03-01T06:02:48;-2.80;90.30
53711;DHT22;39605;52.704;6.752;2023-03-01T06:05:14;-2.80;90.80
53711;DHT22;39605;52.704;6.752;2023-03-01T06:07:41;-2.80;91.50
53711;DHT22;39605;52.704;6.752;2023-03-01T06:10:08;-2.70;93.40
53711;DHT22;39605;52.704;6.752;2023-03-01T06:12:35;-2.80;94.50
53711;DHT22;39605;52.704;6.752;2023-03-01T06:15:02;-2.80;91.40
53711;DHT22;39605;52.704;6.752;2023-03-01T06:17:30;-2.80;91.70
53711;DHT22;39605;52.704;6.752;2023-03-01T06:19:56;-2.90;92.20
53711;DHT22;39605;52.704;6.752;2023-03-01T06:22:22;-2.90;93.00
53711;DHT22;39605;52.704;6.752;2023-03-01T06:24:48;-2.80;94.80
53711;DHT22;39605;52.704;6.752;2023-03-01T06:27:14;-2.80;98.90
53711;DHT22;39605;52.704;6.752;2023-03-01T06:29:39;-2.80;96.20
53711;DHT22;39605;52.704;6.752;2023-03-01T06:32:05;-2.70;97.50
53711;DHT22;39605;52.704;6.752;2023-03-01T06:34:31;-2.70;92.90
53711;DHT22;39605;52.704;6.752;2023-03-01T06:36:57;-2.60;92.60
53711;DHT22;39605;52.704;6.752;2023-03-01T06:39:23;-2.60;93.00
53711;DHT22;39605;52.704;6.752;2023-03-01T06:41:48;-2.50;94.10
53711;DHT22;39605;52.704;6.752;2023-03-01T06:44:14;-2.50;96.10
53711;DHT22;39605;52.704;6.752;2023-03-01T06:46:40;-2.50;91.80
53711;DHT22;39605;52.704;6.752;2023-03-01T06:49:06;-2.50;91.40
53711;DHT22;39605;52.704;6.752;2023-03-01T06:51:35;-2.40;91.40
53711;DHT22;39605;52.704;6.752;2023-03-01T06:54:03;-2.40;89.70
53711;DHT22;39605;52.704;6.752;2023-03-01T06:56:29;-2.40;89.80
53711;DHT22;39605;52.704;6.752;2023-03-01T06:58:55;-2.40;90.10
53711;DHT22;39605;52.704;6.752;2023-03-01T07:01:20;-2.30;90.20
53711;DHT22;39605;52.704;6.752;2023-03-01T07:03:46;-2.20;88.90
53711;DHT22;39605;52.704;6.752;2023-03-01T07:06:12;-2.20;89.00
53711;DHT22;39605;52.704;6.752;2023-03-01T07:08:37;-2.10;88.70
53711;DHT22;39605;52.704;6.752;2023-03-01T07:11:03;-2.10;89.60
53711;DHT22;39605;52.704;6.752;2023-03-01T07:13:29;-2.20;90.40
53711;DHT22;39605;52.704;6.752;2023-03-01T07:15:55;-2.20;90.60
53711;DHT22;39605;52.704;6.752;2023-03-01T07:18:21;-2.20;90.60
53711;DHT22;39605;52.704;6.752;2023-03-01T07:20:47;-2.10;90.20
53711;DHT22;39605;52.704;6.752;2023-03-01T07:23:13;-2.00;91.20
53711;DHT22;39605;52.704;6.752;2023-03-01T07:25:38;-2.00;92.30
53711;DHT22;39605;52.704;6.752;2023-03-01T07:28:04;-1.90;94.20
53711;DHT22;39605;52.704;6.752;2023-03-01T07:30:30;-1.80;93.70
53711;DHT22;39605;52.704;6.752;2023-03-01T07:32:57;-1.70;97.10
53711;DHT22;39605;52.704;6.752;2023-03-01T07:35:24;-1.60;98.50
53711;DHT22;39605;52.704;6.752;2023-03-01T07:37:51;-1.40;99.40
53711;DHT22;39605;52.704;6.752;2023-03-01T07:40:17;-1.30;99.70
53711;DHT22;39605;52.704;6.752;2023-03-01T07:42:42;-1.20;99.90
53711;DHT22;39605;52.704;6.752;2023-03-01T07:45:08;-1.00;95.40
53711;DHT22;39605;52.704;6.752;2023-03-01T07:47:35;-0.80;91.80
53711;DHT22;39605;52.704;6.752;2023-03-01T07:50:00;-0.50;92.80
53711;DHT22;39605;52.704;6.752;2023-03-01T07:52:27;-0.20;91.70
53711;DHT22;39605;52.704;6.752;2023-03-01T07:54:53;0.00;99.90
53711;DHT22;39605;52.704;6.752;2023-03-01T07:57:18;0.40;99.90
53711;DHT22;39605;52.704;6.752;2023-03-01T07:59:44;0.90;97.00
53711;DHT22;39605;52.704;6.752;2023-03-01T08:02:10;1.50;96.00
53711;DHT22;39605;52.704;6.752;2023-03-01T08:04:36;1.90;99.90
53711;DHT22;39605;52.704;6.752;2023-03-01T08:07:04;2.40;99.90
53711;DHT22;39605;52.704;6.752;2023-03-01T08:09:31;2.40;99.90
53711;DHT22;39605;52.704;6.752;2023-03-01T08:11:57;2.30;99.90
53711;DHT22;39605;52.704;6.752;2023-03-01T08:14:25;2.50;99.90
53711;DHT22;39605;52.704;6.752;2023-03-01T08:16:50;2.90;99.90
53711;DHT22;39605;52.704;6.752;2023-03-01T08:19:16;3.30;99.90
53711;DHT22;39605;52.704;6.752;2023-03-01T08:21:42;3.30;99.90
53711;DHT22;39605;52.704;6.752;2023-03-01T08:24:08;3.30;99.90
53711;DHT22;39605;52.704;6.752;2023-03-01T08:26:36;3.70;99.90
53711;DHT22;39605;52.704;6.752;2023-03-01T08:29:03;4.10;99.90
53711;DHT22;39605;52.704;6.752;2023-03-01T08:31:31;4.40;99.90
53711;DHT22;39605;52.704;6.752;2023-03-01T08:34:00;4.60;99.90
53711;DHT22;39605;52.704;6.752;2023-03-01T08:36:31;4.90;99.90
53711;DHT22;39605;52.704;6.752;2023-03-01T08:38:57;5.10;99.90
53711;DHT22;39605;52.704;6.752;2023-03-01T08:41:23;5.20;99.90
53711;DHT22;39605;52.704;6.752;2023-03-01T08:43:50;5.20;99.90
53711;DHT22;39605;52.704;6.752;2023-03-01T08:46:16;5.20;99.90
53711;DHT22;39605;52.704;6.752;2023-03-01T08:48:41;5.50;99.90
53711;DHT22;39605;52.704;6.752;2023-03-01T08:51:15;6.00;99.90
53711;DHT22;39605;52.704;6.752;2023-03-01T08:53:41;6.50;99.90
53711;DHT22;39605;52.704;6.752;2023-03-01T08:56:08;7.40;99.90
53711;DHT22;39605;52.704;6.752;2023-03-01T08:58:35;8.20;99.90
53711;DHT22;39605;52.704;6.752;2023-03-01T09:01:06;8.60;99.10
53711;DHT22;39605;52.704;6.752;2023-03-01T09:03:31;8.70;97.40
53711;DHT22;39605;52.704;6.752;2023-03-01T09:06:00;8.80;98.10
53711;DHT22;39605;52.704;6.752;2023-03-01T09:08:27;8.60;98.20
53711;DHT22;39605;52.704;6.752;2023-03-01T09:10:52;8.60;97.10
53711;DHT22;39605;52.704;6.752;2023-03-01T09:13:18;8.30;97.70
53711;DHT22;39605;52.704;6.752;2023-03-01T09:15:44;8.10;97.60
53711;DHT22;39605;52.704;6.752;2023-03-01T09:18:09;7.70;97.30
53711;DHT22;39605;52.704;6.752;2023-03-01T09:20:35;7.70;97.80
53711;DHT22;39605;52.704;6.752;2023-03-01T09:23:01;7.80;98.70
53711;DHT22;39605;52.704;6.752;2023-03-01T09:25:26;7.90;98.40
53711;DHT22;39605;52.704;6.752;2023-03-01T09:27:53;7.90;98.30
53711;DHT22;39605;52.704;6.752;2023-03-01T09:30:19;8.00;98.50
53711;DHT22;39605;52.704;6.752;2023-03-01T09:32:45;8.00;98.60
53711;DHT22;39605;52.704;6.752;2023-03-01T09:35:11;8.30;98.90
53711;DHT22;39605;52.704;6.752;2023-03-01T09:37:37;8.20;97.70
53711;DHT22;39605;52.704;6.752;2023-03-01T09:40:05;8.20;97.20
53711;DHT22;39605;52.704;6.752;2023-03-01T09:42:35;8.30;97.20
53711;DHT22;39605;52.704;6.752;2023-03-01T09:45:03;8.50;95.60
53711;DHT22;39605;52.704;6.752;2023-03-01T09:47:34;8.70;96.10
53711;DHT22;39605;52.704;6.752;2023-03-01T09:53:07;8.60;93.90
53711;DHT22;39605;52.704;6.752;2023-03-01T09:55:55;8.90;93.70
53711;DHT22;39605;52.704;6.752;2023-03-01T10:00:59;9.00;93.00
53711;DHT22;39605;52.704;6.752;2023-03-01T10:03:43;9.30;93.60
53711;DHT22;39605;52.704;6.752;2023-03-01T10:06:15;9.20;92.90
53711;DHT22;39605;52.704;6.752;2023-03-01T10:08:53;9.50;92.10
53711;DHT22;39605;52.704;6.752;2023-03-01T10:11:24;9.60;91.90
53711;DHT22;39605;52.704;6.752;2023-03-01T10:16:39;9.50;89.80
53711;DHT22;39605;52.704;6.752;2023-03-01T10:19:11;9.70;87.80
53711;DHT22;39605;52.704;6.752;2023-03-01T10:21:43;9.80;86.90
53711;DHT22;39605;52.704;6.752;2023-03-01T10:24:18;9.50;84.10
53711;DHT22;39605;52.704;6.752;2023-03-01T10:26:55;9.40;82.60
53711;DHT22;39605;52.704;6.752;2023-03-01T10:32:26;9.60;73.30
53711;DHT22;39605;52.704;6.752;2023-03-01T10:34:52;10.10;72.00
53711;DHT22;39605;52.704;6.752;2023-03-01T10:37:19;10.00;64.20
53711;DHT22;39605;52.704;6.752;2023-03-01T10:40:05;9.80;62.00
53711;DHT22;39605;52.704;6.752;2023-03-01T10:42:39;10.20;33.30
53711;DHT22;39605;52.704;6.752;2023-03-01T10:48:12;10.00;24.90
53711;DHT22;39605;52.704;6.752;2023-03-01T10:50:49;9.50;18.70
53711;DHT22;39605;52.704;6.752;2023-03-01T10:53:40;9.40;18.30
53711;DHT22;39605;52.704;6.752;2023-03-01T10:56:09;8.90;17.20
53711;DHT22;39605;52.704;6.752;2023-03-01T10:58:56;9.30;17.90
53711;DHT22;39605;52.704;6.752;2023-03-01T11:01:26;9.40;20.10
53711;DHT22;39605;52.704;6.752;2023-03-01T11:04:11;9.40;19.00
53711;DHT22;39605;52.704;6.752;2023-03-01T11:06:39;9.50;21.00
53711;DHT22;39605;52.704;6.752;2023-03-01T11:09:20;9.40;20.80
53711;DHT22;39605;52.704;6.752;2023-03-01T11:11:54;9.40;19.20
53711;DHT22;39605;52.704;6.752;2023-03-01T11:14:26;9.50;17.70
53711;DHT22;39605;52.704;6.752;2023-03-01T11:19:28;9.50;20.50
53711;DHT22;39605;52.704;6.752;2023-03-01T11:22:03;9.60;21.90
53711;DHT22;39605;52.704;6.752;2023-03-01T11:24:36;9.50;22.40
53711;DHT22;39605;52.704;6.752;2023-03-01T11:27:07;9.60;27.00
53711;DHT22;39605;52.704;6.752;2023-03-01T11:29:44;9.40;25.90
53711;DHT22;39605;52.704;6.752;2023-03-01T11:32:13;9.50;25.10
53711;DHT22;39605;52.704;6.752;2023-03-01T11:34:51;9.20;25.10
53711;DHT22;39605;52.704;6.752;2023-03-01T11:37:38;9.30;25.70
53711;DHT22;39605;52.704;6.752;2023-03-01T11:40:13;9.40;27.30
53711;DHT22;39605;52.704;6.752;2023-03-01T11:43:06;9.40;26.60
53711;DHT22;39605;52.704;6.752;2023-03-01T11:46:22;9.50;22.10
53711;DHT22;39605;52.704;6.752;2023-03-01T12:12:51;9.80;23.70
53711;DHT22;39605;52.704;6.752;2023-03-01T12:26:33;10.20;18.10
53711;DHT22;39605;52.704;6.752;2023-03-01T12:34:25;11.10;16.80
53711;DHT22;39605;52.704;6.752;2023-03-01T12:45:32;11.90;20.00
53711;DHT22;39605;52.704;6.752;2023-03-01T12:50:44;11.60;13.70
53711;DHT22;39605;52.704;6.752;2023-03-01T12:53:26;11.60;1.00
53711;DHT22;39605;52.704;6.752;2023-03-01T12:55:54;11.60;1.20
53711;DHT22;39605;52.704;6.752;2023-03-01T12:58:28;11.60;1.00
53711;DHT22;39605;52.704;6.752;2023-03-01T13:09:44;10.80;1.00
53711;DHT22;39605;52.704;6.752;2023-03-01T13:15:36;10.80;3.10
53711;DHT22;39605;52.704;6.752;2023-03-01T13:33:53;10.50;1.00
53711;DHT22;39605;52.704;6.752;2023-03-01T13:41:49;10.50;1.00
53711;DHT22;39605;52.704;6.752;2023-03-01T13:46:47;10.50;1.00
53711;DHT22;39605;52.704;6.752;2023-03-01T13:49:19;10.30;1.00
53711;DHT22;39605;52.704;6.752;2023-03-01T13:51:49;10.20;1.00
53711;DHT22;39605;52.704;6.752;2023-03-01T13:54:20;10.30;1.00
53711;DHT22;39605;52.704;6.752;2023-03-01T13:56:49;10.40;1.00
53711;DHT22;39605;52.704;6.752;2023-03-01T13:59:18;10.40;1.00
53711;DHT22;39605;52.704;6.752;2023-03-01T14:01:44;10.30;1.00
53711;DHT22;39605;52.704;6.752;2023-03-01T14:04:24;10.00;1.00
53711;DHT22;39605;52.704;6.752;2023-03-01T14:06:51;10.10;1.00
53711;DHT22;39605;52.704;6.752;2023-03-01T14:09:23;10.10;1.00
53711;DHT22;39605;52.704;6.752;2023-03-01T14:20:20;10.00;1.00
53711;DHT22;39605;52.704;6.752;2023-03-01T14:22:47;10.00;1.00
53711;DHT22;39605;52.704;6.752;2023-03-01T14:25:23;10.00;1.00
53711;DHT22;39605;52.704;6.752;2023-03-01T14:28:14;9.90;1.00
53711;DHT22;39605;52.704;6.752;2023-03-01T14:30:52;10.00;1.00
53711;DHT22;39605;52.704;6.752;2023-03-01T14:33:34;10.20;1.00
53711;DHT22;39605;52.704;6.752;2023-03-01T14:36:11;10.20;1.00
53711;DHT22;39605;52.704;6.752;2023-03-01T14:38:44;10.10;1.00
53711;DHT22;39605;52.704;6.752;2023-03-01T14:41:11;10.10;1.00
53711;DHT22;39605;52.704;6.752;2023-03-01T14:43:44;10.00;1.00
53711;DHT22;39605;52.704;6.752;2023-03-01T14:48:53;10.00;1.00
53711;DHT22;39605;52.704;6.752;2023-03-01T14:51:20;9.90;1.00
53711;DHT22;39605;52.704;6.752;2023-03-01T14:53:46;9.90;1.00
53711;DHT22;39605;52.704;6.752;2023-03-01T14:56:14;9.90;1.00
53711;DHT22;39605;52.704;6.752;2023-03-01T14:58:40;9.90;1.00
53711;DHT22;39605;52.704;6.752;2023-03-01T15:01:06;9.70;1.00
53711;DHT22;39605;52.704;6.752;2023-03-01T15:03:41;9.70;1.00
53711;DHT22;39605;52.704;6.752;2023-03-01T15:06:11;9.60;1.00
53711;DHT22;39605;52.704;6.752;2023-03-01T15:08:42;9.60;1.00
53711;DHT22;39605;52.704;6.752;2023-03-01T15:13:44;9.50;1.00
53711;DHT22;39605;52.704;6.752;2023-03-01T15:16:27;9.50;1.70
53711;DHT22;39605;52.704;6.752;2023-03-01T15:19:05;9.60;4.00
53711;DHT22;39605;52.704;6.752;2023-03-01T15:21:32;9.50;3.10
53711;DHT22;39605;52.704;6.752;2023-03-01T15:24:06;9.30;3.40
53711;DHT22;39605;52.704;6.752;2023-03-01T15:26:45;9.40;5.00
53711;DHT22;39605;52.704;6.752;2023-03-01T15:29:18;9.30;1.00
53711;DHT22;39605;52.704;6.752;2023-03-01T15:32:23;9.20;5.10
53711;DHT22;39605;52.704;6.752;2023-03-01T15:34:49;9.00;4.90
53711;DHT22;39605;52.704;6.752;2023-03-01T15:37:44;8.90;6.20
53711;DHT22;39605;52.704;6.752;2023-03-01T15:40:49;8.80;13.50
53711;DHT22;39605;52.704;6.752;2023-03-01T15:46:16;8.70;13.50
53711;DHT22;39605;52.704;6.752;2023-03-01T15:48:47;8.70;10.40
53711;DHT22;39605;52.704;6.752;2023-03-01T15:51:15;8.60;18.00
53711;DHT22;39605;52.704;6.752;2023-03-01T15:53:43;8.50;17.70
53711;DHT22;39605;52.704;6.752;2023-03-01T15:56:11;8.50;19.60
53711;DHT22;39605;52.704;6.752;2023-03-01T15:58:37;8.50;14.10
53711;DHT22;39605;52.704;6.752;2023-03-01T16:01:02;8.40;12.90
53711;DHT22;39605;52.704;6.752;2023-03-01T16:03:28;8.40;4.00
53711;DHT22;39605;52.704;6.752;2023-03-01T16:05:54;8.30;3.90
53711;DHT22;39605;52.704;6.752;2023-03-01T16:08:20;8.30;3.40
53711;DHT22;39605;52.704;6.752;2023-03-01T16:10:46;8.20;1.00
53711;DHT22;39605;52.704;6.752;2023-03-01T16:13:13;8.20;1.00
53711;DHT22;39605;52.704;6.752;2023-03-01T16:15:40;8.10;4.90
53711;DHT22;39605;52.704;6.752;2023-03-01T16:18:06;8.10;1.70
53711;DHT22;39605;52.704;6.752;2023-03-01T16:20:33;8.00;1.00
53711;DHT22;39605;52.704;6.752;2023-03-01T16:23:01;8.00;1.00
53711;DHT22;39605;52.704;6.752;2023-03-01T16:25:27;7.90;1.00
53711;DHT22;39605;52.704;6.752;2023-03-01T16:27:53;7.90;1.00
53711;DHT22;39605;52.704;6.752;2023-03-01T16:30:22;7.90;99.90
53711;DHT22;39605;52.704;6.752;2023-03-01T16:32:50;7.80;99.90
53711;DHT22;39605;52.704;6.752;2023-03-01T16:35:19;7.70;1.00
53711;DHT22;39605;52.704;6.752;2023-03-01T16:37:46;7.60;99.90
53711;DHT22;39605;52.704;6.752;2023-03-01T16:40:19;7.60;99.90
53711;DHT22;39605;52.704;6.752;2023-03-01T16:42:47;7.50;1.00
53711;DHT22;39605;52.704;6.752;2023-03-01T16:45:12;7.40;66.60
53711;DHT22;39605;52.704;6.752;2023-03-01T16:47:38;7.30;99.90
53711;DHT22;39605;52.704;6.752;2023-03-01T16:50:04;7.30;99.90
53711;DHT22;39605;52.704;6.752;2023-03-01T16:52:30;7.20;99.90
53711;DHT22;39605;52.704;6.752;2023-03-01T16:54:55;7.10;99.90
53711;DHT22;39605;52.704;6.752;2023-03-01T16:57:22;7.00;1.00
53711;DHT22;39605;52.704;6.752;2023-03-01T16:59:47;6.90;1.00
53711;DHT22;39605;52.704;6.752;2023-03-01T17:02:16;6.80;13.70
53711;DHT22;39605;52.704;6.752;2023-03-01T17:04:51;6.80;99.90
53711;DHT22;39605;52.704;6.752;2023-03-01T17:07:17;6.60;99.90
53711;DHT22;39605;52.704;6.752;2023-03-01T17:09:42;6.60;99.90
53711;DHT22;39605;52.704;6.752;2023-03-01T17:12:08;6.50;1.00
53711;DHT22;39605;52.704;6.752;2023-03-01T17:14:34;6.40;12.40
53711;DHT22;39605;52.704;6.752;2023-03-01T17:17:00;6.40;99.90
53711;DHT22;39605;52.704;6.752;2023-03-01T17:19:28;6.20;99.90
53711;DHT22;39605;52.704;6.752;2023-03-01T17:21:54;6.10;1.00
53711;DHT22;39605;52.704;6.752;2023-03-01T17:24:19;6.00;1.00
53711;DHT22;39605;52.704;6.752;2023-03-01T17:26:45;5.80;99.90
53711;DHT22;39605;52.704;6.752;2023-03-01T17:29:11;5.80;99.90
53711;DHT22;39605;52.704;6.752;2023-03-01T17:31:38;5.60;1.00
53711;DHT22;39605;52.704;6.752;2023-03-01T17:34:03;5.50;88.90
53711;DHT22;39605;52.704;6.752;2023-03-01T17:36:29;5.40;66.80
53711;DHT22;39605;52.704;6.752;2023-03-01T17:38:55;5.40;99.90
53711;DHT22;39605;52.704;6.752;2023-03-01T17:41:21;5.40;99.90
53711;DHT22;39605;52.704;6.752;2023-03-01T17:43:49;5.30;99.90
53711;DHT22;39605;52.704;6.752;2023-03-01T17:46:15;5.30;99.90
53711;DHT22;39605;52.704;6.752;2023-03-01T17:48:41;5.20;99.90
53711;DHT22;39605;52.704;6.752;2023-03-01T17:51:08;5.20;99.90
53711;DHT22;39605;52.704;6.752;2023-03-01T17:53:34;5.20;99.90
53711;DHT22;39605;52.704;6.752;2023-03-01T17:56:03;5.20;99.90
53711;DHT22;39605;52.704;6.752;2023-03-01T17:58:29;5.10;99.90